Time;durP1;ratioP1;P1;durP2;ratioP2;P2;SDS_P1;SDS_P2;PMS_P1;PMS_P2;Temp;Humidity;BMP_temperature;BMP_pressure;BME280_temperature;BME280_humidity;BME280_pressure;Samples;Min_cycle;Max_cycle;Signal;HPM_P1;HPM_P2
2023/07/24 00:01:54;;;;;;;5.43;5.22;;;;;;;21.82;100.00;-9591.06;5074827;28;20192;-63
2023/07/24 00:04:21;;;;;;;6.15;5.95;;;;;;;21.60;100.00;-8940.34;5074767;28;20260;-63
2023/07/24 00:06:47;;;;;;;5.87;5.67;;;;;;;21.81;100.00;-10564.00;5074979;28;20201;-63
2023/07/24 00:09:16;;;;;;;6.85;6.45;;;;;;;21.69;100.00;-11210.94;5074735;28;20189;-63
2023/07/24 00:11:42;;;;;;;6.57;5.93;;;;;;;21.66;100.00;-13802.56;5074752;28;20196;-63
2023/07/24 00:14:09;;;;;;;6.50;5.83;;;;;;;21.63;100.00;-12182.44;5074845;28;20208;-63
2023/07/24 00:16:36;;;;;;;6.03;5.83;;;;;;;21.56;100.00;-12181.47;5074512;28;20203;-63
2023/07/24 00:19:03;;;;;;;6.07;5.78;;;;;;;21.60;100.00;-12505.94;5074453;28;20280;-63
2023/07/24 00:21:30;;;;;;;6.37;6.17;;;;;;;21.60;100.00;-12829.91;5074560;28;20196;-64
2023/07/24 00:23:57;;;;;;;6.37;5.93;;;;;;;21.43;100.00;-10559.75;5074978;28;20579;-62
2023/07/24 00:26:25;;;;;;;7.50;5.90;;;;;;;21.50;100.00;-11532.66;5074736;28;20601;-64
2023/07/24 00:28:52;;;;;;;5.75;5.55;;;;;;;21.50;100.00;-11856.59;5074255;28;20188;-63
2023/07/24 00:31:19;;;;;;;5.60;5.40;;;;;;;21.32;100.00;-12502.03;5074415;28;20558;-63
2023/07/24 00:33:46;;;;;;;6.17;5.87;;;;;;;21.45;100.00;-12827.66;5074072;28;20208;-65
2023/07/24 00:36:13;;;;;;;5.82;5.57;;;;;;;21.24;100.00;-13148.38;5074429;28;20185;-63
2023/07/24 00:38:40;;;;;;;6.60;6.10;;;;;;;21.45;100.00;-12827.66;5074626;28;20220;-63
2023/07/24 00:41:07;;;;;;;5.90;5.70;;;;;;;21.48;100.00;-12504.28;5074448;28;20549;-63
2023/07/24 00:43:35;;;;;;;5.90;5.68;;;;;;;21.51;100.00;-12504.66;5074372;28;20184;-63
2023/07/24 00:46:03;;;;;;;6.15;5.75;;;;;;;21.38;100.00;-11531.13;5074354;28;20646;-63
2023/07/24 00:48:30;;;;;;;6.20;5.80;;;;;;;21.39;100.00;-12179.09;5074027;28;20188;-63
2023/07/24 00:50:57;;;;;;;6.10;5.82;;;;;;;21.42;100.00;-11531.63;5073986;28;20263;-62
2023/07/24 00:53:24;;;;;;;6.18;5.78;;;;;;;21.14;100.00;-11528.09;5073743;28;20228;-63
2023/07/24 00:55:51;;;;;;;7.03;6.15;;;;;;;21.38;100.00;-12502.91;5074075;28;20188;-63
2023/07/24 00:58:20;;;;;;;6.00;5.60;;;;;;;21.34;100.00;-11854.53;5073291;28;20185;-63
2023/07/24 01:00:48;;;;;;;5.75;5.55;;;;;;;21.23;100.00;-14442.75;5073792;28;20188;-64
2023/07/24 01:03:15;;;;;;;6.18;5.97;;;;;;;21.09;100.00;-14440.38;5073768;28;20196;-63
2023/07/24 01:05:42;;;;;;;7.57;6.57;;;;;;;21.26;100.00;-14119.75;5074019;28;20535;-63
2023/07/24 01:08:09;;;;;;;7.10;6.40;;;;;;;21.22;100.00;-14119.06;5073660;28;20196;-62
2023/07/24 01:10:36;;;;;;;6.30;5.90;;;;;;;21.20;100.00;-14442.22;5073954;28;20189;-63
2023/07/24 01:13:10;;;;;;;6.80;6.33;;;;;;;21.13;100.00;-14117.44;5073519;28;20200;-63
2023/07/24 01:15:43;;;;;;;6.43;6.00;;;;;;;21.14;100.00;-13794.03;5073483;28;20209;-62
2023/07/24 01:18:11;;;;;;;6.10;5.80;;;;;;;21.09;100.00;-13793.28;5074184;28;20199;-64
2023/07/24 01:20:43;;;;;;;5.72;5.53;;;;;;;21.17;100.00;-13470.91;5073669;28;20193;-62
2023/07/24 01:23:22;;;;;;;6.47;6.17;;;;;;;21.11;100.00;-13470.00;5073440;28;20188;-65
2023/07/24 01:26:02;;;;;;;6.70;6.30;;;;;;;21.12;100.00;-13793.78;5073192;28;20180;-63
2023/07/24 01:28:29;;;;;;;6.50;6.20;;;;;;;21.08;100.00;-14116.69;5073547;28;20201;-63
2023/07/24 01:30:57;;;;;;;8.03;7.00;;;;;;;21.05;100.00;-13792.63;5073072;28;20196;-63
2023/07/24 01:33:25;;;;;;;7.53;6.87;;;;;;;21.13;100.00;-13146.69;5073354;28;20177;-62
2023/07/24 01:35:55;;;;;;;7.20;6.73;;;;;;;21.04;100.00;-13468.88;5073002;28;20208;-64
2023/07/24 01:38:26;;;;;;;6.30;6.00;;;;;;;21.02;100.00;-13792.13;5072965;28;20185;-63
2023/07/24 01:40:54;;;;;;;7.10;6.37;;;;;;;20.93;100.00;-13790.72;5073332;28;20701;-64
2023/07/24 01:43:23;;;;;;;6.30;6.00;;;;;;;20.94;100.00;-13467.28;5072996;28;20185;-63
2023/07/24 01:45:50;;;;;;;7.50;6.57;;;;;;;21.08;100.00;-13469.53;5072778;28;20180;-64
2023/07/24 01:48:17;;;;;;;7.07;6.60;;;;;;;21.15;100.00;-13470.66;5073891;28;20207;-63
2023/07/24 01:50:43;;;;;;;8.07;7.40;;;;;;;21.16;100.00;-13794.38;5073170;28;20189;-62
2023/07/24 01:53:10;;;;;;;8.05;7.28;;;;;;;21.09;100.00;-13793.28;5072622;28;20698;-63
2023/07/24 01:55:37;;;;;;;8.45;7.50;;;;;;;21.08;100.00;-13793.13;5072600;28;20215;-62
2023/07/24 01:58:04;;;;;;;10.32;7.90;;;;;;;21.12;100.00;-14117.28;5072450;28;20200;-63
2023/07/24 02:00:32;;;;;;;8.95;8.13;;;;;;;21.05;100.00;-14439.69;5072832;28;20211;-63
2023/07/24 02:02:59;;;;;;;7.95;7.22;;;;;;;21.04;100.00;-14762.97;5072437;28;20189;-62
2023/07/24 02:05:27;;;;;;;7.43;7.13;;;;;;;21.04;100.00;-14762.97;5072461;28;20177;-63
2023/07/24 02:07:54;;;;;;;8.23;7.13;;;;;;;20.91;100.00;-14760.63;5072885;28;20201;-62
2023/07/24 02:10:21;;;;;;;8.20;7.07;;;;;;;21.02;100.00;-15086.03;5072422;28;20189;-64
2023/07/24 02:12:47;;;;;;;7.83;7.23;;;;;;;20.90;100.00;-15083.91;5072842;28;20579;-62
2023/07/24 02:15:14;;;;;;;8.35;7.65;;;;;;;20.95;100.00;-15408.09;5072461;28;20552;-65
2023/07/24 02:17:43;;;;;;;7.40;6.80;;;;;;;20.99;100.00;-15732.22;5072509;28;20641;-63
2023/07/24 02:20:10;;;;;;;7.83;7.23;;;;;;;21.02;100.00;-15732.72;5072233;28;20239;-63
2023/07/24 02:22:37;;;;;;;6.93;6.33;;;;;;;21.05;100.00;-16056.75;5072467;28;20192;-63
2023/07/24 02:25:04;;;;;;;10.17;7.50;;;;;;;21.00;100.00;-16379.03;5072415;28;20185;-63
2023/07/24 02:27:34;;;;;;;7.72;7.32;;;;;;;21.01;100.00;-16702.50;5072383;28;20184;-62
2023/07/24 02:30:01;;;;;;;9.97;7.90;;;;;;;21.07;100.00;-16703.78;5072553;28;20188;-64
2023/07/24 02:32:28;;;;;;;7.50;7.03;;;;;;;20.95;100.00;-17024.53;5072190;28;20200;-63
2023/07/24 02:34:56;;;;;;;9.00;7.53;;;;;;;20.97;100.00;-17348.03;5071939;28;20209;-62
2023/07/24 02:37:23;;;;;;;7.90;7.20;;;;;;;20.93;100.00;-17670.28;5071903;28;20220;-63
2023/07/24 02:39:50;;;;;;;7.23;6.53;;;;;;;20.86;100.00;-17668.69;5071968;28;20185;-63
2023/07/24 02:42:17;;;;;;;7.40;6.70;;;;;;;20.79;100.00;-17667.09;5072150;28;20189;-62
2023/07/24 02:44:43;;;;;;;8.13;7.50;;;;;;;20.79;100.00;-17667.19;5071830;28;20181;-63
2023/07/24 02:47:10;;;;;;;8.00;7.30;;;;;;;20.70;100.00;-17665.03;5071939;28;20634;-63
2023/07/24 02:49:37;;;;;;;8.15;7.47;;;;;;;20.75;100.00;-17666.19;5071862;28;20184;-63
2023/07/24 02:52:06;;;;;;;7.50;7.00;;;;;;;20.64;100.00;-17663.66;5072234;28;20591;-63
2023/07/24 02:54:33;;;;;;;8.20;7.50;;;;;;;20.62;100.00;-17340.38;5071906;28;20208;-63
2023/07/24 02:57:00;;;;;;;8.43;7.73;;;;;;;20.63;100.00;-17017.47;5071569;28;20192;-62
2023/07/24 02:59:27;;;;;;;8.53;7.77;;;;;;;20.54;100.00;-16369.59;5072076;28;20567;-63
2023/07/24 03:01:54;;;;;;;8.18;7.47;;;;;;;20.41;100.00;-16043.91;5071620;28;20180;-62
2023/07/24 03:04:20;;;;;;;10.87;8.23;;;;;;;20.40;100.00;-16043.72;5071548;28;20185;-63
2023/07/24 03:06:47;;;;;;;7.63;7.13;;;;;;;20.41;100.00;-15397.94;5071962;28;20199;-63
2023/07/24 03:09:15;;;;;;;8.95;8.07;;;;;;;20.17;100.00;-15393.34;5071837;28;20232;-62
2023/07/24 03:11:42;;;;;;;9.17;8.40;;;;;;;20.35;100.00;-15396.78;5071453;28;20188;-64
2023/07/24 03:14:09;;;;;;;9.03;8.13;;;;;;;20.17;100.00;-15393.25;5071685;28;20631;-63
2023/07/24 03:16:36;;;;;;;8.55;8.07;;;;;;;20.46;100.00;-15075.78;5071463;28;20188;-63
2023/07/24 03:19:03;;;;;;;8.20;7.50;;;;;;;20.44;100.00;-15075.31;5071478;28;20184;-62
2023/07/24 03:21:29;;;;;;;8.87;8.03;;;;;;;20.39;100.00;-14751.28;5071247;28;20661;-63
2023/07/24 03:23:56;;;;;;;10.43;7.90;;;;;;;20.57;100.00;-15077.75;5071577;28;20627;-63
2023/07/24 03:26:24;;;;;;;8.23;7.50;;;;;;;20.88;100.00;-14760.06;5071660;28;20181;-63
2023/07/24 03:28:51;;;;;;;9.17;8.47;;;;;;;21.71;100.00;-15746.19;5071662;28;20552;-63
2023/07/24 03:31:21;;;;;;;8.90;8.23;;;;;;;22.42;100.00;-12517.63;5071246;28;20188;-63
2023/07/24 03:33:48;;;;;;;9.70;7.72;;;;;;;22.75;100.00;5703.84;5071590;28;20223;-63
2023/07/24 03:36:15;;;;;;;8.70;7.85;;;;;;;22.82;100.00;11258.47;5071202;28;20215;-61
2023/07/24 03:38:42;;;;;;;8.70;8.07;;;;;;;22.66;100.00;7987.50;5071221;28;20193;-64
2023/07/24 03:41:09;;;;;;;8.63;7.70;;;;;;;22.70;100.00;4724.19;5071565;28;20184;-63
2023/07/24 03:43:37;;;;;;;8.52;7.93;;;;;;;22.59;100.00;2440.13;5071559;28;20188;-63
2023/07/24 03:46:04;;;;;;;8.32;7.75;;;;;;;22.61;100.00;5375.47;5071094;28;20188;-63
2023/07/24 03:48:31;;;;;;;9.02;8.13;;;;;;;22.96;100.00;12243.06;5071126;28;20195;-63
2023/07/24 03:51:02;;;;;;;8.73;8.00;;;;;;;23.05;100.00;23716.47;5071157;28;20189;-63
2023/07/24 03:53:29;;;;;;;8.95;8.32;;;;;;;23.13;100.00;24376.78;5070945;28;20239;-63
2023/07/24 03:55:56;;;;;;;10.02;9.02;;;;;;;23.21;100.00;30626.78;5071264;28;20239;-63
2023/07/24 03:58:23;;;;;;;9.52;8.75;;;;;;;23.83;100.00;44854.78;5071357;28;20655;-63
2023/07/24 04:00:51;;;;;;;9.48;8.70;;;;;;;24.26;100.00;66474.19;5071122;28;20206;-64
2023/07/24 04:03:18;;;;;;;9.77;9.13;;;;;;;24.44;100.00;91578.69;5071335;28;20235;-63
2023/07/24 04:05:45;;;;;;;9.50;8.80;;;;;;;24.58;100.00;103709.66;5071318;28;20734;-61
2023/07/24 04:08:12;;;;;;;10.13;9.35;;;;;;;24.78;100.00;111166.53;5071662;28;20185;-62
2023/07/24 04:10:39;;;;;;;10.00;9.25;;;;;;;24.83;100.00;125052.59;5071078;28;20188;-62
2023/07/24 04:13:09;;;;;;;9.82;9.32;;;;;;;24.79;100.00;123349.09;5070900;28;20189;-62
2023/07/24 04:15:36;;;;;;;9.82;9.02;;;;;;;24.94;100.00;130845.53;5071215;28;20201;-63
2023/07/24 04:18:04;;;;;;;10.32;9.57;;;;;;;24.83;100.00;134219.69;5071247;28;20193;-63
2023/07/24 04:20:31;;;;;;;10.40;9.48;;;;;;;24.98;100.00;136295.81;5071171;28;20223;-63
2023/07/24 04:22:58;;;;;;;10.82;9.18;;;;;;;25.02;100.00;135284.16;5071152;28;20184;-62
2023/07/24 04:25:25;;;;;;;12.18;9.48;;;;;;;25.16;100.00;129874.44;5071148;28;20193;-63
2023/07/24 04:27:52;;;;;;;10.57;9.23;;;;;;;25.30;100.00;122774.38;5071153;28;20585;-63
2023/07/24 04:30:18;;;;;;;9.30;8.70;;;;;;;25.38;100.00;137406.66;5071065;28;20653;-63
2023/07/24 04:32:49;;;;;;;9.55;8.80;;;;;;;25.41;100.00;143208.84;5073956;28;20189;-62
2023/07/24 04:35:17;;;;;;;9.90;8.93;;;;;;;25.72;100.00;142940.78;5074512;28;20331;-64
2023/07/24 04:37:44;;;;;;;9.18;8.57;;;;;;;25.93;100.00;152562.75;5074252;28;20185;-63
2023/07/24 04:40:12;;;;;;;9.55;8.90;;;;;;;26.14;100.00;152615.16;5056787;28;20627;-63
2023/07/24 04:42:39;;;;;;;8.85;8.25;;;;;;;26.15;100.00;152617.75;5074334;28;20196;-63
2023/07/24 04:45:09;;;;;;;9.73;8.75;;;;;;;26.43;100.00;152686.84;5074439;28;20595;-63
2023/07/24 04:47:38;;;;;;;14.57;10.30;;;;;;;26.60;100.00;152731.59;5074084;28;20203;-61
2023/07/24 04:50:06;;;;;;;9.50;8.63;;;;;;;26.82;100.00;152786.56;5074740;28;20185;-64
2023/07/24 04:52:34;;;;;;;9.30;8.50;;;;;;;26.93;100.00;152814.78;5078597;28;20224;-63
2023/07/24 04:55:01;;;;;;;9.98;9.27;;;;;;;27.05;100.00;152844.19;5077658;28;20209;-62
2023/07/24 04:57:28;;;;;;;10.57;9.73;;;;;;;26.97;100.00;152823.72;5076633;28;20188;-62
2023/07/24 04:59:55;;;;;;;15.00;10.52;;;;;;;27.00;100.00;152831.38;5075461;28;20185;-63
2023/07/24 05:02:22;;;;;;;10.52;9.77;;;;;;;26.77;100.00;152775.09;5074697;28;20197;-63
2023/07/24 05:04:49;;;;;;;12.65;10.27;;;;;;;26.95;100.00;152818.56;5082063;28;20200;-62
2023/07/24 05:07:16;;;;;;;16.65;11.02;;;;;;;26.95;100.00;152819.84;5083334;28;20216;-62
2023/07/24 05:09:44;;;;;;;10.35;9.60;;;;;;;27.14;100.00;152867.22;5087002;28;20191;-62
2023/07/24 05:12:11;;;;;;;15.82;9.75;;;;;;;27.05;100.00;152844.19;5080120;28;20185;-60
2023/07/24 05:14:37;;;;;;;21.15;9.70;;;;;;;27.06;100.00;152846.75;5077377;28;20185;-63
2023/07/24 05:17:07;;;;;;;13.10;9.27;;;;;;;27.31;100.00;152910.69;5079732;28;20204;-61
2023/07/24 05:19:34;;;;;;;14.38;9.10;;;;;;;27.27;100.00;152901.75;5076483;28;20185;-62
2023/07/24 05:22:01;;;;;;;14.82;8.45;;;;;;;27.69;100.00;153008.00;5078738;28;20180;-62
2023/07/24 05:24:28;;;;;;;17.38;7.97;;;;;;;27.83;100.00;153042.56;5081795;28;20681;-64
2023/07/24 05:26:56;;;;;;;8.43;6.25;;;;;;;27.95;100.00;153073.28;5078341;28;20185;-63
2023/07/24 05:29:23;;;;;;;6.68;6.18;;;;;;;28.06;100.00;153100.13;5074256;28;20189;-63
2023/07/24 05:31:50;;;;;;;5.30;5.10;;;;;;;28.01;100.00;153087.31;5077255;28;20358;-65
2023/07/24 05:34:17;;;;;;;5.55;5.15;;;;;;;28.17;100.00;153128.34;5077343;28;20608;-64
2023/07/24 05:36:44;;;;;;;6.00;5.80;;;;;;;28.18;100.00;153130.88;5080550;28;20239;-61
2023/07/24 05:39:11;;;;;;;6.63;6.15;;;;;;;28.37;100.00;153178.25;5075604;28;20206;-61
2023/07/24 05:41:38;;;;;;;6.25;5.90;;;;;;;28.35;100.00;153174.41;5076649;28;20173;-62
2023/07/24 05:44:06;;;;;;;6.38;5.70;;;;;;;28.41;100.00;153189.78;5076142;28;20193;-62
2023/07/24 05:46:33;;;;;;;5.63;5.28;;;;;;;28.67;100.00;153253.81;5079504;28;20559;-65
2023/07/24 05:49:01;;;;;;;7.55;6.78;;;;;;;28.74;100.00;153273.03;5077543;28;20185;-62
2023/07/24 05:51:28;;;;;;;8.98;5.30;;;;;;;28.82;100.00;153293.53;5075541;28;20263;-62
2023/07/24 05:53:55;;;;;;;5.90;5.13;;;;;;;29.01;100.00;153342.22;5076188;28;20203;-63
2023/07/24 05:56:22;;;;;;;15.20;5.28;;;;;;;29.20;100.00;153388.28;5073958;28;20227;-62
2023/07/24 05:58:48;;;;;;;9.35;5.38;;;;;;;29.28;100.00;153410.06;5073301;28;20184;-61
2023/07/24 06:01:17;;;;;;;13.30;5.57;;;;;;;29.45;100.00;153452.44;5073306;28;20504;-61
2023/07/24 06:03:44;;;;;;;5.55;4.68;;;;;;;29.63;100.00;153498.53;5073755;28;20247;-61
2023/07/24 06:06:12;;;;;;;5.18;4.78;;;;;;;29.35;100.00;153428.09;5073705;28;20192;-61
2023/07/24 06:08:39;;;;;;;6.22;5.07;;;;;;;30.08;100.00;153612.63;5074103;28;20192;-61
2023/07/24 06:11:06;;;;;;;13.68;5.53;;;;;;;31.06;100.00;153860.13;5073362;28;20615;-63
2023/07/24 06:13:32;;;;;;;4.90;4.50;;;;;;;31.29;100.00;153920.38;5073387;28;20185;-60
2023/07/24 06:16:00;;;;;;;4.97;4.57;;;;;;;31.33;100.00;153928.06;5072029;28;20319;-61
2023/07/24 06:18:28;;;;;;;4.57;4.15;;;;;;;31.70;100.00;154024.31;5072413;28;20642;-60
2023/07/24 06:20:55;;;;;;;5.82;4.15;;;;;;;32.10;100.00;154124.44;5072759;28;20189;-61
2023/07/24 06:23:22;;;;;;;12.02;4.55;;;;;;;32.42;100.00;154206.53;5072778;28;20185;-62
2023/07/24 06:25:51;;;;;;;4.55;4.20;;;;;;;32.77;100.00;154293.88;5072128;28;20183;-61
2023/07/24 06:28:21;;;;;;;4.93;3.95;;;;;;;32.83;100.00;154310.56;5072178;28;20184;-61
2023/07/24 06:30:48;;;;;;;6.72;4.65;;;;;;;32.91;100.00;154329.81;5072405;28;20603;-60
2023/07/24 06:33:15;;;;;;;8.40;4.43;;;;;;;32.92;100.00;154333.69;5071910;28;20181;-61
2023/07/24 06:35:43;;;;;;;8.00;4.53;;;;;;;32.51;100.00;154229.66;5071750;28;20216;-60
2023/07/24 06:38:10;;;;;;;4.57;4.30;;;;;;;32.63;100.00;154259.25;5072190;28;20223;-62
2023/07/24 06:40:39;;;;;;;5.25;3.92;;;;;;;32.43;100.00;154207.81;5072915;28;20185;-63
2023/07/24 06:43:08;;;;;;;4.40;4.20;;;;;;;32.99;100.00;154351.66;5073023;28;20181;-63
2023/07/24 06:45:35;;;;;;;5.18;4.68;;;;;;;33.59;100.00;154503.19;5073514;28;20185;-60
2023/07/24 06:48:02;;;;;;;5.55;4.80;;;;;;;33.82;100.00;154561.06;5072414;28;20532;-62
2023/07/24 06:50:29;;;;;;;4.10;3.70;;;;;;;34.13;100.00;154640.66;5073259;28;20196;-64
2023/07/24 06:52:57;;;;;;;7.63;5.20;;;;;;;34.02;100.00;154611.13;5073028;28;20232;-63
2023/07/24 06:55:24;;;;;;;7.75;4.78;;;;;;;34.20;100.00;154657.44;5072509;28;20201;-65
2023/07/24 06:57:55;;;;;;;5.18;3.97;;;;;;;33.02;100.00;154358.03;5072978;28;20201;-65
2023/07/24 07:00:22;;;;;;;3.45;2.85;;;;;;;33.07;91.28;154370.88;5072880;28;20192;-64
2023/07/24 07:02:49;;;;;;;4.60;3.03;;;;;;;32.66;89.24;154266.94;5054688;28;20197;-63
2023/07/24 07:05:16;;;;;;;2.35;2.20;;;;;;;32.75;80.74;154288.75;5073341;28;20195;-61
2023/07/24 07:07:43;;;;;;;3.85;2.58;;;;;;;32.58;83.73;154247.66;5073670;28;20551;-62
2023/07/24 07:10:11;;;;;;;3.33;3.13;;;;;;;32.75;84.90;154290.03;5075763;28;20695;-62
2023/07/24 07:12:38;;;;;;;2.88;2.78;;;;;;;33.33;79.55;154436.41;5074314;28;20224;-63
2023/07/24 07:15:07;;;;;;;2.15;1.92;;;;;;;33.24;61.33;154413.31;5073698;28;20224;-62
2023/07/24 07:17:34;;;;;;;2.50;2.40;;;;;;;32.78;68.27;154297.72;5055308;28;20221;-62
2023/07/24 07:20:04;;;;;;;6.80;3.28;;;;;;;32.75;75.90;154290.03;5054427;28;20192;-64
2023/07/24 07:22:31;;;;;;;2.60;2.40;;;;;;;32.44;75.08;154211.69;5074951;28;20192;-62
2023/07/24 07:24:58;;;;;;;2.90;2.53;;;;;;;32.30;78.19;154174.47;5072046;28;20275;-63
2023/07/24 07:27:26;;;;;;;2.70;2.60;;;;;;;32.05;78.78;154112.84;5071208;28;20206;-61
2023/07/24 07:29:56;;;;;;;2.72;2.63;;;;;;;32.10;78.69;154125.72;5071224;28;20181;-60
2023/07/24 07:32:23;;;;;;;2.92;2.72;;;;;;;32.08;81.69;154120.56;5072319;28;20275;-59
2023/07/24 07:34:52;;;;;;;3.20;3.00;;;;;;;32.11;83.56;154128.31;5071256;28;20500;-60
2023/07/24 07:37:18;;;;;;;3.20;3.00;;;;;;;32.14;nan;154135.97;5071612;28;20204;-62
2023/07/24 07:39:46;;;;;;;2.53;2.42;;;;;;;32.08;90.77;154119.28;5071341;28;20189;-64
2023/07/24 07:42:12;;;;;;;2.80;2.70;;;;;;;32.11;92.39;154128.31;5073023;28;20191;-62
2023/07/24 07:44:41;;;;;;;2.92;2.83;;;;;;;31.96;94.41;154089.72;5071853;28;20181;-62
2023/07/24 07:47:08;;;;;;;2.90;2.80;;;;;;;32.35;93.84;154187.31;5071134;28;20180;-62
2023/07/24 07:49:36;;;;;;;4.95;3.20;;;;;;;32.50;91.78;154225.81;5071955;28;20518;-61
2023/07/24 07:52:04;;;;;;;4.15;3.47;;;;;;;31.42;100.00;153951.16;5073679;28;20236;-63
2023/07/24 07:54:31;;;;;;;3.97;3.67;;;;;;;31.15;100.00;153884.47;5072514;28;20181;-62
2023/07/24 07:57:01;;;;;;;3.38;3.28;;;;;;;31.40;100.00;153946.06;5071858;28;20232;-61
2023/07/24 07:59:31;;;;;;;3.67;3.47;;;;;;;31.16;100.00;153885.75;5071818;28;20189;-62
2023/07/24 08:02:02;;;;;;;3.40;3.20;;;;;;;31.51;100.00;153974.25;5072411;28;20216;-66
2023/07/24 08:04:54;;;;;;;3.53;3.42;;;;;;;31.97;100.00;154091.03;5070905;28;20187;-64
2023/07/24 08:07:21;;;;;;;3.35;3.25;;;;;;;32.43;100.00;154209.13;5074618;28;20224;-61
2023/07/24 08:09:48;;;;;;;3.80;3.70;;;;;;;32.78;99.78;154296.44;5075178;28;20199;-61
2023/07/24 08:12:16;;;;;;;3.90;3.58;;;;;;;32.90;100.00;154328.53;5075074;28;20250;-63
2023/07/24 08:14:43;;;;;;;3.25;2.95;;;;;;;32.99;94.98;154351.66;5057206;28;20189;-63
2023/07/24 08:17:11;;;;;;;3.90;3.60;;;;;;;33.22;99.81;154409.47;5074300;28;20205;-61
2023/07/24 08:19:38;;;;;;;3.97;3.63;;;;;;;33.02;100.00;154359.34;5074528;28;20243;-62
2023/07/24 08:22:05;;;;;;;4.13;3.92;;;;;;;33.14;100.00;154388.94;5075179;28;20195;-62
2023/07/24 08:24:35;;;;;;;3.53;3.38;;;;;;;32.58;99.36;154246.34;5075875;28;20189;-63
2023/07/24 08:27:04;;;;;;;3.00;2.90;;;;;;;32.09;96.66;154123.16;5077577;28;20547;-62
2023/07/24 08:29:33;;;;;;;3.35;3.03;;;;;;;31.20;100.00;153896.00;5075010;28;20184;-62
2023/07/24 08:32:00;;;;;;;4.95;3.47;;;;;;;30.64;100.00;153753.69;5074459;28;20627;-63
2023/07/24 08:34:29;;;;;;;4.00;3.25;;;;;;;30.47;100.00;153710.09;5074514;28;20199;-63
2023/07/24 08:36:56;;;;;;;3.88;3.53;;;;;;;30.11;100.00;153620.31;5074167;28;20215;-63
2023/07/24 08:39:22;;;;;;;3.50;3.30;;;;;;;29.28;100.00;153410.06;5056903;28;20232;-62
2023/07/24 08:41:49;;;;;;;3.70;3.40;;;;;;;29.77;100.00;153533.13;5077365;28;20185;-63
2023/07/24 08:44:17;;;;;;;3.47;3.20;;;;;;;29.99;100.00;153589.56;5074209;28;20185;-61
2023/07/24 08:46:45;;;;;;;3.58;3.42;;;;;;;30.11;100.00;153620.31;5074004;28;20641;-62
2023/07/24 08:49:13;;;;;;;3.38;3.08;;;;;;;30.10;100.00;153616.44;5074500;28;20504;-64
2023/07/24 08:51:42;;;;;;;3.42;2.97;;;;;;;30.37;100.00;153686.97;5073948;28;20548;-64
2023/07/24 08:54:10;;;;;;;3.33;3.17;;;;;;;30.23;100.00;153651.06;5073583;28;20195;-62
2023/07/24 08:56:37;;;;;;;3.00;2.80;;;;;;;30.10;100.00;153617.72;5073974;28;20212;-61
2023/07/24 08:59:04;;;;;;;2.97;2.70;;;;;;;29.93;100.00;153574.16;5073690;28;20189;-62
2023/07/24 09:01:31;;;;;;;2.92;2.72;;;;;;;29.94;100.00;153578.03;5073837;28;20189;-64
2023/07/24 09:03:58;;;;;;;2.67;2.47;;;;;;;29.56;100.00;153479.31;5073797;28;20546;-64
2023/07/24 09:06:29;;;;;;;2.95;2.85;;;;;;;29.55;100.00;153476.75;5073824;28;20192;-64
2023/07/24 09:08:57;;;;;;;2.70;2.50;;;;;;;29.79;100.00;153539.50;5073532;28;20181;-63
2023/07/24 09:11:24;;;;;;;3.53;2.95;;;;;;;29.67;100.00;153507.47;5074012;28;20559;-63
2023/07/24 09:13:51;;;;;;;2.85;2.75;;;;;;;29.57;100.00;153483.19;5073151;28;20208;-65
2023/07/24 09:16:25;;;;;;;3.28;3.08;;;;;;;29.38;100.00;153435.75;5075232;28;20208;-63
2023/07/24 09:18:52;;;;;;;2.90;2.80;;;;;;;28.86;100.00;153303.78;5072328;28;20204;-62
2023/07/24 09:21:29;;;;;;;3.20;3.00;;;;;;;28.94;100.00;153323.03;5073228;28;20192;-61
2023/07/24 09:23:58;;;;;;;2.92;2.83;;;;;;;29.13;100.00;153371.66;5073472;28;20176;-63
2023/07/24 09:26:25;;;;;;;2.92;2.83;;;;;;;28.82;100.00;153292.25;5073482;28;20236;-62
2023/07/24 09:28:55;;;;;;;2.85;2.75;;;;;;;28.78;100.00;153283.28;5073477;28;20204;-64
2023/07/24 09:31:22;;;;;;;2.70;2.60;;;;;;;28.94;100.00;153324.25;5072955;28;20184;-63
2023/07/24 09:33:49;;;;;;;2.90;2.70;;;;;;;29.22;100.00;153393.44;5073638;28;20193;-63
2023/07/24 09:36:16;;;;;;;3.08;2.97;;;;;;;29.43;100.00;153447.28;5086398;28;20196;-63
2023/07/24 09:38:43;;;;;;;3.45;2.80;;;;;;;28.98;100.00;153333.25;5093233;28;20177;-65
2023/07/24 09:41:11;;;;;;;3.05;2.85;;;;;;;28.88;100.00;153307.63;5094160;28;20278;-62
2023/07/24 09:43:38;;;;;;;2.75;2.65;;;;;;;28.91;100.00;153315.31;5093611;28;20286;-62
2023/07/24 09:46:06;;;;;;;3.53;3.20;;;;;;;28.70;100.00;153261.53;5094111;28;20192;-64
2023/07/24 09:48:34;;;;;;;2.97;2.88;;;;;;;28.68;100.00;153256.38;5093074;28;20184;-62
2023/07/24 09:51:02;;;;;;;3.38;3.10;;;;;;;28.54;100.00;153223.09;5093473;28;20188;-63
2023/07/24 09:53:34;;;;;;;3.42;2.97;;;;;;;29.01;100.00;153340.94;5070427;28;20239;-62
2023/07/24 09:56:04;;;;;;;3.22;3.13;;;;;;;29.24;100.00;153399.81;5073220;28;20626;-63
2023/07/24 09:58:34;;;;;;;2.58;2.47;;;;;;;29.32;100.00;153420.38;5072210;28;20211;-60
2023/07/24 10:01:02;;;;;;;2.88;2.78;;;;;;;29.24;100.00;153398.59;5072429;28;20189;-65
2023/07/24 10:03:33;;;;;;;3.15;2.95;;;;;;;29.52;100.00;153470.34;5072434;28;20185;-63
2023/07/24 10:06:03;;;;;;;3.22;3.13;;;;;;;29.56;100.00;153479.31;5071785;28;20200;-64
2023/07/24 10:08:31;;;;;;;3.15;2.90;;;;;;;29.49;100.00;153462.69;5072084;28;20270;-64
2023/07/24 10:10:59;;;;;;;3.08;2.88;;;;;;;29.79;100.00;153538.28;5072507;28;20224;-62
2023/07/24 10:13:29;;;;;;;2.85;2.75;;;;;;;29.61;100.00;153493.41;5072333;28;20184;-63
2023/07/24 10:15:58;;;;;;;3.10;3.00;;;;;;;29.84;100.00;153551.03;5072417;28;20195;-62
2023/07/24 10:18:28;;;;;;;3.08;2.97;;;;;;;29.81;100.00;153543.38;5072213;28;20215;-63
2023/07/24 10:21:02;;;;;;;3.38;3.17;;;;;;;29.70;100.00;153515.19;5072447;28;20185;-63
2023/07/24 10:23:29;;;;;;;3.35;3.08;;;;;;;29.59;100.00;153487.00;5054041;28;20196;-63
2023/07/24 10:25:56;;;;;;;2.60;2.50;;;;;;;28.84;100.00;153297.38;5072928;28;20275;-64
2023/07/24 10:28:38;;;;;;;3.05;2.95;;;;;;;28.44;100.00;153197.47;5054566;28;20197;-63
2023/07/24 10:31:08;;;;;;;3.10;3.00;;;;;;;28.65;100.00;153249.94;5073876;28;20227;-63
2023/07/24 10:33:38;;;;;;;3.22;3.03;;;;;;;28.86;100.00;153302.50;5072304;28;20255;-63
2023/07/24 10:36:10;;;;;;;3.25;3.05;;;;;;;28.95;100.00;153325.53;5072084;28;20578;-64
2023/07/24 10:38:39;;;;;;;3.25;3.05;;;;;;;28.92;100.00;153317.88;5071685;28;20675;-63
2023/07/24 10:41:07;;;;;;;3.40;3.30;;;;;;;28.69;100.00;153258.91;5072772;28;20195;-64
2023/07/24 10:43:46;;;;;;;3.80;3.50;;;;;;;28.56;100.00;153228.19;5071850;28;20210;-61
2023/07/24 10:46:15;;;;;;;3.83;3.55;;;;;;;28.26;100.00;153151.41;5072620;28;20192;-61
2023/07/24 10:48:44;;;;;;;3.40;3.28;;;;;;;28.39;100.00;153184.66;5074162;28;20185;-62
2023/07/24 10:51:14;;;;;;;3.28;3.17;;;;;;;28.45;100.00;153200.03;5074333;28;20181;-61
2023/07/24 10:53:43;;;;;;;3.30;3.15;;;;;;;28.58;100.00;153232.03;5073932;28;20279;-61
2023/07/24 10:56:10;;;;;;;3.85;3.60;;;;;;;28.54;100.00;153221.78;5074053;28;20199;-63
2023/07/24 10:58:37;;;;;;;3.38;3.17;;;;;;;28.36;100.00;153175.69;5072730;28;20223;-64
2023/07/24 11:01:05;;;;;;;3.80;3.60;;;;;;;27.60;100.00;152984.97;5072051;28;20185;-62
2023/07/24 11:03:36;;;;;;;3.85;3.67;;;;;;;27.77;100.00;153027.19;5071713;28;20658;-63
2023/07/24 11:06:04;;;;;;;3.42;3.33;;;;;;;27.95;100.00;153071.97;5073331;28;20215;-62
2023/07/24 11:08:33;;;;;;;3.15;3.03;;;;;;;27.78;100.00;153028.47;5071370;28;20207;-63
2023/07/24 11:11:00;;;;;;;4.18;3.72;;;;;;;27.93;100.00;153066.84;5072105;28;20215;-65
2023/07/24 11:13:29;;;;;;;3.53;3.33;;;;;;;27.83;100.00;153042.56;5073415;28;20189;-63
2023/07/24 11:15:56;;;;;;;3.80;3.60;;;;;;;27.96;100.00;153074.56;5072468;28;20524;-64
2023/07/24 11:18:26;;;;;;;4.10;3.90;;;;;;;27.93;100.00;153068.13;5071940;28;20253;-63
2023/07/24 11:20:55;;;;;;;3.55;3.45;;;;;;;27.89;100.00;153057.88;5054564;28;20605;-62